Terminal Aerodrome Forecast
Issued by NWS Wilmington, NC

Home | Current Version | Previous Version | Text Only | Print | Product List | Glossary On
Versions: 1 2 3 4 5 6 7 8 9 10 11 12 13 14
000
FTUS42 KILM 301224 CCA
TAFLBT
TAF COR
KLBT 301224Z 3012/3112 00000KT P6SM SCT020
     FM301500 22003KT P6SM SCT250
     FM301900 09005KT P6SM VCTS SCT050CB
     FM310000 15005KT P6SM BKN250=

USA.gov is the U.S. government's official web portal to all federal, state and local government web resources and services.